createdAt,value
2023-02-28T00:00:54.655Z,-2.7
2023-02-28T00:03:54.701Z,-2.7
2023-02-28T00:06:54.664Z,-2.6
2023-02-28T00:09:54.667Z,-2.6
2023-02-28T00:12:54.775Z,-2.5
2023-02-28T00:15:54.691Z,-2.5
2023-02-28T00:18:54.671Z,-2.5
2023-02-28T00:21:54.672Z,-2.6
2023-02-28T00:24:54.708Z,-2.7
2023-02-28T00:27:54.687Z,-2.8
2023-02-28T00:30:54.776Z,-2.7
2023-02-28T00:33:54.705Z,-2.7
2023-02-28T00:36:54.685Z,-2.7
2023-02-28T00:39:54.690Z,-2.7
2023-02-28T00:42:54.694Z,-2.8
2023-02-28T00:45:54.729Z,-2.9
2023-02-28T00:48:54.699Z,-3
2023-02-28T00:51:54.736Z,-2.9
2023-02-28T00:54:54.704Z,-2.9
2023-02-28T00:57:54.714Z,-2.8
2023-02-28T01:00:54.817Z,-2.8
2023-02-28T01:03:54.708Z,-2.8
2023-02-28T01:06:54.710Z,-2.7
2023-02-28T01:09:54.736Z,-2.7
2023-02-28T01:12:54.717Z,-2.6
2023-02-28T01:15:54.803Z,-2.6
2023-02-28T01:18:54.725Z,-2.6
2023-02-28T01:21:54.725Z,-2.5
2023-02-28T01:24:54.722Z,-2.5
2023-02-28T01:27:54.770Z,-2.5
2023-02-28T01:30:54.773Z,-2.5
2023-02-28T01:33:54.736Z,-2.7
2023-02-28T01:36:54.745Z,-2.7
2023-02-28T01:39:54.740Z,-2.7
2023-02-28T01:42:54.749Z,-2.7
2023-02-28T01:45:54.776Z,-2.7
2023-02-28T01:48:54.751Z,-2.7
2023-02-28T01:51:54.754Z,-2.7
2023-02-28T01:54:54.760Z,-2.7
2023-02-28T01:57:54.773Z,-2.6
2023-02-28T02:00:54.771Z,-2.7
2023-02-28T02:03:54.801Z,-2.8
2023-02-28T02:06:54.783Z,-3
2023-02-28T02:09:54.995Z,-3
2023-02-28T02:12:54.793Z,-3
2023-02-28T02:15:54.843Z,-3
2023-02-28T02:18:54.827Z,-3
2023-02-28T02:21:54.834Z,-3.1
2023-02-28T02:24:54.812Z,-3.2
2023-02-28T02:27:54.816Z,-3.2
2023-02-28T02:30:54.828Z,-3.3
2023-02-28T02:33:54.829Z,-3.3
2023-02-28T02:36:54.835Z,-3.3
2023-02-28T02:39:54.869Z,-3.4
2023-02-28T02:42:54.848Z,-3.5
2023-02-28T02:45:54.853Z,-3.6
2023-02-28T02:48:54.856Z,-3.5
2023-02-28T02:51:54.867Z,-3.4
2023-02-28T02:54:56.530Z,-3.4
2023-02-28T02:57:54.901Z,-3.3
2023-02-28T03:00:54.927Z,-3.4
2023-02-28T03:03:54.991Z,-3.5
2023-02-28T03:06:54.896Z,-3.5
2023-02-28T03:09:54.903Z,-3.5
2023-02-28T03:12:54.913Z,-3.4
2023-02-28T03:15:54.973Z,-3.4
2023-02-28T03:18:54.921Z,-3.5
2023-02-28T03:21:54.927Z,-3.7
2023-02-28T03:24:54.929Z,-3.8
2023-02-28T03:27:54.950Z,-3.9
2023-02-28T03:30:55.030Z,-3.8
2023-02-28T03:33:54.978Z,-3.8
2023-02-28T03:36:55.043Z,-3.6
2023-02-28T03:39:54.966Z,-3.6
2023-02-28T03:42:54.968Z,-3.7
2023-02-28T03:45:55.008Z,-3.8
2023-02-28T03:48:54.992Z,-3.9
2023-02-28T03:51:55.019Z,-3.9
2023-02-28T03:54:54.996Z,-4
2023-02-28T03:57:55.007Z,-4
2023-02-28T04:00:55.003Z,-4.2
2023-02-28T04:03:55.012Z,-4.3
2023-02-28T04:06:55.028Z,-4.3
2023-02-28T04:09:55.058Z,-4.3
2023-02-28T04:12:55.043Z,-4.2
2023-02-28T04:15:55.058Z,-4.2
2023-02-28T04:18:55.052Z,-4.2
2023-02-28T04:21:55.054Z,-4.3
2023-02-28T04:24:55.064Z,-4.3
2023-02-28T04:27:55.101Z,-4.4
2023-02-28T04:30:55.087Z,-4.4
2023-02-28T04:33:55.108Z,-4.4
2023-02-28T04:37:10.328Z,-4.5
2023-02-28T04:39:55.109Z,-4.5
2023-02-28T04:42:55.113Z,-4.6
2023-02-28T04:45:55.189Z,-4.7
2023-02-28T04:48:55.124Z,-4.7
2023-02-28T04:51:55.163Z,-4.8
2023-02-28T04:54:55.267Z,-4.8
2023-02-28T04:57:55.146Z,-4.8
2023-02-28T05:00:55.152Z,-4.8
2023-02-28T05:03:55.189Z,-4.8
2023-02-28T05:06:55.165Z,-4.8
2023-02-28T05:09:55.176Z,-4.8
2023-02-28T05:12:55.177Z,-4.7
2023-02-28T05:15:55.214Z,-4.6
2023-02-28T05:18:55.236Z,-4.8
2023-02-28T05:21:55.225Z,-5
2023-02-28T05:24:55.203Z,-5.1
2023-02-28T05:27:55.214Z,-5.2
2023-02-28T05:30:55.220Z,-5.1
2023-02-28T05:33:55.224Z,-5.1
2023-02-28T05:36:55.225Z,-5.2
2023-02-28T05:39:55.272Z,-5.2
2023-02-28T05:42:55.241Z,-5.3
2023-02-28T05:45:55.282Z,-5.4
2023-02-28T05:48:55.346Z,-5.4
2023-02-28T05:51:55.265Z,-5.4
2023-02-28T05:54:55.275Z,-5.5
2023-02-28T05:57:55.304Z,-5.5
2023-02-28T06:00:55.285Z,-5.5
2023-02-28T06:03:55.290Z,-5.5
2023-02-28T06:06:55.318Z,-5.5
2023-02-28T06:09:55.305Z,-5.6
2023-02-28T06:12:55.312Z,-5.6
2023-02-28T06:15:55.348Z,-5.5
2023-02-28T06:18:55.374Z,-5.5
2023-02-28T06:21:55.338Z,-5.4
2023-02-28T06:24:55.348Z,-5.3
2023-02-28T06:27:55.355Z,-5.2
2023-02-28T06:30:55.413Z,-5.2
2023-02-28T06:33:55.390Z,-5.1
2023-02-28T06:36:55.374Z,-5.1
2023-02-28T06:39:55.385Z,-5
2023-02-28T06:42:55.387Z,-4.9
2023-02-28T06:45:55.432Z,-4.7
2023-02-28T06:48:55.404Z,-4.6
2023-02-28T06:51:55.431Z,-4.5
2023-02-28T06:54:55.418Z,-4.4
2023-02-28T06:57:55.426Z,-4.2
2023-02-28T07:00:55.430Z,-4
2023-02-28T07:03:55.438Z,-3.7
2023-02-28T07:06:55.446Z,-3.3
2023-02-28T07:09:55.475Z,-2.8
2023-02-28T07:12:55.450Z,-2.3
2023-02-28T07:15:55.509Z,-1.9
2023-02-28T07:18:55.468Z,-1.5
2023-02-28T07:21:55.473Z,-1.1
2023-02-28T07:24:55.481Z,-0.7
2023-02-28T07:27:55.513Z,-0.4
2023-02-28T07:30:55.529Z,-0.1
2023-02-28T07:33:55.494Z,0.3
2023-02-28T07:36:55.521Z,0.7
2023-02-28T07:39:55.515Z,1
2023-02-28T07:42:55.519Z,1.4
2023-02-28T07:45:55.547Z,1.7
2023-02-28T07:48:55.533Z,2
2023-02-28T07:51:55.547Z,2.5
2023-02-28T07:54:55.561Z,2.8
2023-02-28T07:57:55.560Z,3
2023-02-28T08:00:55.604Z,3.4
2023-02-28T08:03:55.594Z,3.6
2023-02-28T08:06:55.585Z,3.8
2023-02-28T08:09:55.592Z,4
2023-02-28T08:12:55.594Z,4.3
2023-02-28T08:15:55.712Z,4.5
2023-02-28T08:18:55.623Z,4.6
2023-02-28T08:21:55.658Z,4.8
2023-02-28T08:24:55.665Z,4.9
2023-02-28T08:27:55.665Z,4.9
2023-02-28T08:30:55.689Z,5
2023-02-28T08:33:55.684Z,5.2
2023-02-28T08:36:55.697Z,5.3
2023-02-28T08:39:56.458Z,5.4
2023-02-28T08:42:55.723Z,5.6
2023-02-28T08:45:55.733Z,5.9
2023-02-28T08:48:55.733Z,6.1
2023-02-28T08:51:55.744Z,6.3
2023-02-28T08:54:55.771Z,6.2
2023-02-28T08:57:55.793Z,6
2023-02-28T09:00:55.815Z,6.1
2023-02-28T09:06:55.805Z,6.5
2023-02-28T09:09:55.843Z,6.7
2023-02-28T09:12:55.930Z,6.9
2023-02-28T09:15:55.965Z,7.1
2023-02-28T09:18:55.857Z,7.3
2023-02-28T09:21:55.869Z,7.4
2023-02-28T09:24:55.914Z,7.7
2023-02-28T09:27:55.890Z,7.7
2023-02-28T09:30:56.090Z,7.8
2023-02-28T09:33:55.997Z,7.8
2023-02-28T09:36:56.104Z,7.7
2023-02-28T09:39:55.933Z,7.6
2023-02-28T09:42:55.985Z,7.7
2023-02-28T09:45:55.972Z,7.8
2023-02-28T09:48:55.958Z,7.9
2023-02-28T09:51:56.040Z,8.1
2023-02-28T09:54:55.975Z,8.2
2023-02-28T09:57:55.976Z,8.2
2023-02-28T10:00:55.977Z,8.2
2023-02-28T10:03:55.993Z,8.3
2023-02-28T10:06:56.009Z,8.4
2023-02-28T10:09:56.100Z,8.5
2023-02-28T10:12:56.052Z,8.5
2023-02-28T10:15:56.064Z,8.3
2023-02-28T10:18:56.011Z,7.8
2023-02-28T10:21:56.016Z,7.7
2023-02-28T10:24:56.005Z,7.8
2023-02-28T10:27:56.039Z,8.1
2023-02-28T10:30:56.147Z,8.4
2023-02-28T10:33:56.029Z,8.5
2023-02-28T10:36:56.031Z,8.6
2023-02-28T10:39:56.041Z,8.6
2023-02-28T10:42:56.049Z,8.7
2023-02-28T10:45:56.076Z,8.8
2023-02-28T10:48:56.049Z,8.8
2023-02-28T10:51:56.058Z,8.8
2023-02-28T10:54:56.063Z,8.6
2023-02-28T10:57:56.090Z,8
2023-02-28T11:00:56.071Z,7.6
2023-02-28T11:03:56.097Z,7.8
2023-02-28T11:06:56.082Z,8.2
2023-02-28T11:09:56.087Z,8.3
2023-02-28T11:12:56.101Z,8.5
2023-02-28T11:15:56.119Z,8.7
2023-02-28T11:18:56.150Z,8.7
2023-02-28T11:21:56.122Z,8.5
2023-02-28T11:24:56.103Z,8.5
2023-02-28T11:27:56.107Z,8.4
2023-02-28T11:30:56.136Z,8.4
2023-02-28T11:33:56.109Z,8
2023-02-28T11:36:56.123Z,7.8
2023-02-28T11:39:56.143Z,7.9
2023-02-28T11:42:56.138Z,7.9
2023-02-28T11:45:56.136Z,7.9
2023-02-28T11:48:56.135Z,7.7
2023-02-28T11:51:56.139Z,7.8
2023-02-28T11:54:56.143Z,8.1
2023-02-28T11:57:56.187Z,8
2023-02-28T12:00:56.157Z,7.8
2023-02-28T12:03:56.168Z,7.6
2023-02-28T12:06:56.175Z,7.5
2023-02-28T12:09:56.171Z,7.3
2023-02-28T12:12:56.186Z,7.1
2023-02-28T12:15:56.213Z,6.9
2023-02-28T12:18:56.195Z,6.8
2023-02-28T12:21:56.200Z,6.9
2023-02-28T12:24:56.205Z,6.7
2023-02-28T12:27:56.211Z,6.7
2023-02-28T12:30:56.206Z,6.6
2023-02-28T12:33:56.235Z,6.5
2023-02-28T12:36:56.216Z,6.4
2023-02-28T12:39:56.215Z,6.3
2023-02-28T12:42:56.234Z,6.2
2023-02-28T12:45:56.257Z,6
2023-02-28T12:48:56.231Z,5.9
2023-02-28T12:51:56.274Z,5.9
2023-02-28T12:54:56.275Z,5.9
2023-02-28T12:57:56.248Z,5.7
2023-02-28T13:00:56.306Z,5.7
2023-02-28T13:03:56.244Z,5.7
2023-02-28T13:06:56.250Z,5.7
2023-02-28T13:09:56.287Z,5.5
2023-02-28T13:12:56.273Z,5.5
2023-02-28T13:15:56.264Z,5.5
2023-02-28T13:18:56.266Z,5.4
2023-02-28T13:21:56.268Z,5.5
2023-02-28T13:24:56.278Z,5.5
2023-02-28T13:27:56.311Z,5.6
2023-02-28T13:30:56.318Z,5.4
2023-02-28T13:33:56.282Z,5.4
2023-02-28T13:36:56.294Z,5.3
2023-02-28T13:39:56.298Z,5.3
2023-02-28T13:42:56.302Z,5.3
2023-02-28T13:45:56.331Z,5.4
2023-02-28T13:48:56.306Z,5.3
2023-02-28T13:51:56.314Z,5.2
2023-02-28T13:54:56.318Z,5.2
2023-02-28T13:57:56.338Z,5.1
2023-02-28T14:00:56.328Z,5
2023-02-28T14:03:56.366Z,5.1
2023-02-28T14:06:56.332Z,5.2
2023-02-28T14:09:56.346Z,5.2
2023-02-28T14:12:56.369Z,5.2
2023-02-28T14:15:56.445Z,5.3
2023-02-28T14:18:56.362Z,5.4
2023-02-28T14:21:56.387Z,5.4
2023-02-28T14:24:56.383Z,5.5
2023-02-28T14:27:56.385Z,5.5
2023-02-28T14:30:56.515Z,5.5
2023-02-28T14:33:56.383Z,5.4
2023-02-28T14:36:56.388Z,5.3
2023-02-28T14:39:56.419Z,5.3
2023-02-28T14:42:56.396Z,5.3
2023-02-28T14:45:56.398Z,5.3
2023-02-28T14:48:56.398Z,5.3
2023-02-28T14:51:56.409Z,5.4
2023-02-28T14:54:56.413Z,5.3
2023-02-28T14:57:56.446Z,5.3
2023-02-28T15:00:56.431Z,5.3
2023-02-28T15:03:56.420Z,5.3
2023-02-28T15:06:56.432Z,5.3
2023-02-28T15:09:56.447Z,5.2
2023-02-28T15:12:56.442Z,5.2
2023-02-28T15:16:04.317Z,5.2
2023-02-28T15:18:56.447Z,5.1
2023-02-28T15:21:56.444Z,5.1
2023-02-28T15:24:56.454Z,5.1
2023-02-28T15:27:56.467Z,5
2023-02-28T15:30:56.464Z,5
2023-02-28T15:33:56.504Z,5
2023-02-28T15:36:56.463Z,4.9
2023-02-28T15:39:56.464Z,4.9
2023-02-28T15:42:56.474Z,4.9
2023-02-28T15:45:56.489Z,4.9
2023-02-28T15:48:56.475Z,4.8
2023-02-28T15:51:56.505Z,4.7
2023-02-28T15:54:56.480Z,4.7
2023-02-28T15:57:56.503Z,4.6
2023-02-28T16:00:56.493Z,4.5
2023-02-28T16:03:56.493Z,4.5
2023-02-28T16:06:56.489Z,4.4
2023-02-28T16:09:56.517Z,4.3
2023-02-28T16:12:56.502Z,4.1
2023-02-28T16:15:56.487Z,4
2023-02-28T16:18:56.495Z,4
2023-02-28T16:21:56.496Z,3.8
2023-02-28T16:24:56.506Z,3.8
2023-02-28T16:27:56.539Z,3.7
2023-02-28T16:30:56.511Z,3.6
2023-02-28T16:33:58.070Z,3.4
2023-02-28T16:36:56.499Z,3.3
2023-02-28T16:39:56.502Z,3.1
2023-02-28T16:42:56.523Z,3
2023-02-28T16:45:56.635Z,2.9
2023-02-28T16:48:56.514Z,2.7
2023-02-28T16:51:56.503Z,2.6
2023-02-28T16:54:56.512Z,2.5
2023-02-28T16:57:56.515Z,2.3
2023-02-28T17:00:56.529Z,2.1
2023-02-28T17:03:56.607Z,1.9
2023-02-28T17:06:56.544Z,1.7
2023-02-28T17:09:56.637Z,1.6
2023-02-28T17:13:06.063Z,1.4
2023-02-28T17:15:56.736Z,1.3
2023-02-28T17:18:56.614Z,1.1
2023-02-28T17:21:56.649Z,0.9
2023-02-28T17:24:56.642Z,0.8
2023-02-28T17:27:56.667Z,0.7
2023-02-28T17:30:56.680Z,0.6
2023-02-28T17:33:56.679Z,0.4
2023-02-28T17:36:56.693Z,0.3
2023-02-28T17:39:56.794Z,0.2
2023-02-28T17:42:56.730Z,0.2
2023-02-28T17:45:56.770Z,0.1
2023-02-28T17:48:56.716Z,0
2023-02-28T17:51:56.722Z,-0.1
2023-02-28T17:54:56.726Z,-0.3
2023-02-28T17:57:56.783Z,-0.4
2023-02-28T18:00:56.736Z,-0.5
2023-02-28T18:03:56.766Z,-0.6
2023-02-28T18:06:56.750Z,-0.6
2023-02-28T18:09:56.758Z,-0.6
2023-02-28T18:12:56.778Z,-0.7
2023-02-28T18:15:56.819Z,-0.7
2023-02-28T18:18:56.800Z,-0.7
2023-02-28T18:21:56.778Z,-0.7
2023-02-28T18:24:56.776Z,-0.7
2023-02-28T18:27:56.795Z,-0.8
2023-02-28T18:30:56.781Z,-0.9
2023-02-28T18:33:56.817Z,-0.9
2023-02-28T18:36:56.798Z,-1.1
2023-02-28T18:39:56.829Z,-1.1
2023-02-28T18:42:56.823Z,-1.2
2023-02-28T18:45:56.821Z,-1.3
2023-02-28T18:48:56.827Z,-1.4
2023-02-28T18:51:56.856Z,-1.5
2023-02-28T18:54:56.828Z,-1.4
2023-02-28T18:57:56.844Z,-1.4
2023-02-28T19:00:56.872Z,-1.3
2023-02-28T19:03:56.861Z,-1.4
2023-02-28T19:06:56.845Z,-1.5
2023-02-28T19:09:56.876Z,-1.6
2023-02-28T19:12:56.860Z,-1.7
2023-02-28T19:15:57.754Z,-1.7
2023-02-28T19:18:56.874Z,-1.8
2023-02-28T19:21:56.880Z,-1.9
2023-02-28T19:24:56.877Z,-1.9
2023-02-28T19:27:56.915Z,-1.9
2023-02-28T19:30:56.882Z,-1.9
2023-02-28T19:33:58.621Z,-2.1
2023-02-28T19:36:56.890Z,-2.3
2023-02-28T19:39:56.945Z,-2.5
2023-02-28T19:42:56.905Z,-2.6
2023-02-28T19:45:56.971Z,-2.6
2023-02-28T19:48:56.907Z,-2.7
2023-02-28T19:51:56.911Z,-2.8
2023-02-28T19:54:56.911Z,-2.8
2023-02-28T19:57:56.933Z,-2.9
2023-02-28T20:00:56.968Z,-2.9
2023-02-28T20:03:57.084Z,-3
2023-02-28T20:06:56.934Z,-3.1
2023-02-28T20:09:56.931Z,-3.2
2023-02-28T20:12:56.952Z,-3.2
2023-02-28T20:15:56.938Z,-3.3
2023-02-28T20:18:56.942Z,-3.4
2023-02-28T20:21:56.976Z,-3.4
2023-02-28T20:24:56.948Z,-3.3
2023-02-28T20:27:56.958Z,-3.3
2023-02-28T20:30:57.016Z,-3.3
2023-02-28T20:33:56.966Z,-3.2
2023-02-28T20:36:56.978Z,-3.2
2023-02-28T20:39:57.002Z,-3.2
2023-02-28T20:42:56.984Z,-3.2
2023-02-28T20:45:32.148Z,-3.1
2023-02-28T20:46:45.907Z,-3.1
2023-02-28T20:48:51.197Z,-3.1
2023-02-28T20:51:51.200Z,-3.3
2023-02-28T20:54:51.231Z,-3.3
2023-02-28T20:57:51.250Z,-3.4
2023-02-28T21:00:51.231Z,-3.5
2023-02-28T21:02:29.632Z,-3.6
2023-02-28T21:05:29.636Z,-3.7
2023-02-28T21:08:29.664Z,-3.7
2023-02-28T21:11:29.666Z,-3.8
2023-02-28T21:14:29.703Z,-3.8
2023-02-28T21:17:29.689Z,-3.7
2023-02-28T21:20:29.701Z,-3.7
2023-02-28T21:23:29.730Z,-3.7
2023-02-28T21:26:30.138Z,-3.6
2023-02-28T21:29:29.730Z,-3.6
2023-02-28T21:32:29.779Z,-3.7
2023-02-28T21:35:29.793Z,-3.8
2023-02-28T21:38:29.787Z,-3.9
2023-02-28T21:41:29.782Z,-3.9
2023-02-28T21:43:29.430Z,-4
2023-02-28T21:43:51.776Z,-4
2023-02-28T21:44:35.717Z,-4
2023-02-28T21:47:35.784Z,-4.1
2023-02-28T21:50:35.739Z,-4.1
2023-02-28T21:53:35.764Z,-4.1
2023-02-28T21:56:35.758Z,-4.1
2023-02-28T21:59:35.796Z,-4.1
2023-02-28T22:02:35.800Z,-4.2
2023-02-28T22:05:35.810Z,-4.3
2023-02-28T22:08:35.802Z,-4.3
2023-02-28T22:11:35.799Z,-4.4
2023-02-28T22:14:35.805Z,-4.5
2023-02-28T22:17:35.812Z,-4.5
2023-02-28T22:20:35.821Z,-4.5
2023-02-28T22:23:35.875Z,-4.4
2023-02-28T22:26:35.847Z,-4.4
2023-02-28T22:29:35.848Z,-4.3
2023-02-28T22:32:35.878Z,-4.4
2023-02-28T22:35:35.896Z,-4.5
2023-02-28T22:38:35.892Z,-4.5
2023-02-28T22:41:35.909Z,-4.6
2023-02-28T22:44:35.895Z,-4.7
2023-02-28T22:47:35.906Z,-4.7
2023-02-28T22:50:35.904Z,-4.6
2023-02-28T22:53:36.009Z,-4.5
2023-02-28T22:56:35.924Z,-4.5
2023-02-28T22:59:35.959Z,-4.5
2023-02-28T23:02:35.946Z,-4.5
2023-02-28T23:05:35.951Z,-4.5
2023-02-28T23:08:35.974Z,-4.5
2023-02-28T23:11:35.980Z,-4.5
2023-02-28T23:14:35.985Z,-4.6
2023-02-28T23:17:36.059Z,-4.7
2023-02-28T23:20:36.031Z,-4.8
2023-02-28T23:23:36.024Z,-4.9
2023-02-28T23:26:36.021Z,-5
2023-02-28T23:29:36.028Z,-5.1
2023-02-28T23:32:36.062Z,-5.2
2023-02-28T23:35:36.100Z,-5.2
2023-02-28T23:38:36.065Z,-5.2
2023-02-28T23:41:36.067Z,-5.2
2023-02-28T23:44:36.071Z,-5.2
2023-02-28T23:47:36.082Z,-5.1
2023-02-28T23:50:36.092Z,-5.2
2023-02-28T23:53:36.149Z,-5.3
2023-02-28T23:56:36.108Z,-5.4
2023-02-28T23:59:36.119Z,-5.4
